Terminal Aerodrome Forecast
Issued by NWS

Home | Current Version | Previous Version | Text Only | Print | Product List | Glossary On
Versions: 1 2 3 4 5 6 7 8 9 10 11 12 13 14 15 16 17 18 19 20 21 22 23 24 25 26
498
FTAK31 PAFA 262339
TAFAFA
TAF
PAFA 262339Z 2700/2806 00000KT P6SM FEW060 SCT100 SCT200
     FM271000 VRB03KT P6SM SCT050 BKN100
     FM271500 23004KT P6SM -SHRASN SCT025 OVC040
     FM271700 24004KT 5SM -SHRASN BR OVC020
     FM272300 VRB04KT P6SM SCT025 SCT050=

USA.gov is the U.S. government's official web portal to all federal, state and local government web resources and services.